createdAt,value
2018-03-11T00:00:50.217Z,52.00
2018-03-11T00:03:17.861Z,50.97
2018-03-11T00:05:45.479Z,54.03
2018-03-11T00:08:13.212Z,50.43
2018-03-11T00:10:40.833Z,50.37
2018-03-11T00:13:08.457Z,54.97
2018-03-11T00:15:36.206Z,49.40
2018-03-11T00:18:03.865Z,50.77
2018-03-11T00:20:31.504Z,51.27
2018-03-11T00:22:59.183Z,53.60
2018-03-11T00:25:26.847Z,51.30
2018-03-11T00:27:55.129Z,52.13
2018-03-11T00:30:22.773Z,51.73
2018-03-11T00:32:50.449Z,53.53
2018-03-11T00:35:18.116Z,50.63
2018-03-11T00:37:45.786Z,50.60
2018-03-11T00:40:13.424Z,50.67
2018-03-11T00:42:41.032Z,48.07
2018-03-11T00:45:08.664Z,54.93
2018-03-11T00:47:36.324Z,53.73
2018-03-11T00:50:03.949Z,50.93
2018-03-11T00:52:31.593Z,52.63
2018-03-11T00:54:59.315Z,55.20
2018-03-11T00:57:26.980Z,52.17
2018-03-11T00:59:54.597Z,50.23
2018-03-11T01:02:22.242Z,52.97
2018-03-11T01:04:49.968Z,57.30
2018-03-11T01:07:17.604Z,49.10
2018-03-11T01:09:45.292Z,46.17
2018-03-11T01:12:12.935Z,50.53
2018-03-11T01:14:40.621Z,55.33
2018-03-11T01:17:08.237Z,49.10
2018-03-11T01:19:35.952Z,50.70
2018-03-11T01:22:03.614Z,52.57
2018-03-11T01:24:31.274Z,56.00
2018-03-11T01:26:58.890Z,55.60
2018-03-11T01:29:26.528Z,52.90
2018-03-11T01:31:54.157Z,46.70
2018-03-11T01:34:21.821Z,50.63
2018-03-11T01:36:49.436Z,50.07
2018-03-11T01:39:17.148Z,50.40
2018-03-11T01:41:44.809Z,49.80
2018-03-11T01:44:12.449Z,49.43
2018-03-11T01:46:40.128Z,47.27
2018-03-11T01:49:07.763Z,53.97
2018-03-11T01:51:35.376Z,47.43
2018-03-11T01:54:03.129Z,47.13
2018-03-11T01:56:30.736Z,50.57
2018-03-11T01:58:58.444Z,49.90
2018-03-11T02:01:26.052Z,50.07
2018-03-11T02:03:53.772Z,46.63
2018-03-11T02:06:21.389Z,47.10
2018-03-11T02:08:49.008Z,52.60
2018-03-11T02:11:16.640Z,46.20
2018-03-11T02:13:44.247Z,50.00
2018-03-11T02:16:11.876Z,47.37
2018-03-11T02:18:39.548Z,45.03
2018-03-11T02:21:09.868Z,45.07
2018-03-11T02:23:37.477Z,42.70
2018-03-11T02:26:05.112Z,45.43
2018-03-11T02:28:32.751Z,45.10
2018-03-11T02:31:00.384Z,48.87
2018-03-11T02:33:28.004Z,47.37
2018-03-11T02:35:55.642Z,49.33
2018-03-11T02:38:23.254Z,44.30
2018-03-11T02:40:50.894Z,45.37
2018-03-11T02:43:18.529Z,48.73
2018-03-11T02:45:46.165Z,47.27
2018-03-11T02:48:13.809Z,54.87
2018-03-11T02:50:41.521Z,46.93
2018-03-11T02:53:09.147Z,46.60
2018-03-11T02:55:36.843Z,54.37
2018-03-11T02:58:04.509Z,50.47
2018-03-11T03:00:32.129Z,50.50
2018-03-11T03:02:59.764Z,46.90
2018-03-11T03:05:27.381Z,48.10
2018-03-11T03:07:55.068Z,49.47
2018-03-11T03:10:22.685Z,48.30
2018-03-11T03:12:50.325Z,49.27
2018-03-11T03:15:17.940Z,50.90
2018-03-11T03:17:45.606Z,47.57
2018-03-11T03:20:13.273Z,52.10
2018-03-11T03:22:40.924Z,56.37
2018-03-11T03:25:08.545Z,49.80
2018-03-11T03:27:36.152Z,43.43
2018-03-11T03:30:03.786Z,47.23
2018-03-11T03:32:31.408Z,45.73
2018-03-11T03:34:59.045Z,46.77
2018-03-11T03:37:26.700Z,47.03
2018-03-11T03:39:54.364Z,46.57
2018-03-11T03:42:21.985Z,54.00
2018-03-11T03:44:49.694Z,50.57
2018-03-11T03:47:17.348Z,50.97
2018-03-11T03:49:45.013Z,50.30
2018-03-11T03:52:12.634Z,45.07
2018-03-11T03:54:40.338Z,53.40
2018-03-11T03:57:08.000Z,56.00
2018-03-11T03:59:35.773Z,58.73
2018-03-11T04:02:03.429Z,57.90
2018-03-11T04:04:31.052Z,56.27
2018-03-11T04:06:58.756Z,54.97
2018-03-11T04:09:26.376Z,62.97
2018-03-11T04:11:54.017Z,51.10
2018-03-11T04:14:21.637Z,48.83
2018-03-11T04:16:49.304Z,54.13
2018-03-11T04:19:16.926Z,51.87
2018-03-11T04:21:44.628Z,55.87
2018-03-11T04:24:12.254Z,49.47
2018-03-11T04:26:39.952Z,53.93
2018-03-11T04:29:07.565Z,68.93
2018-03-11T04:31:35.220Z,49.87
2018-03-11T04:34:02.836Z,47.73
2018-03-11T04:36:30.881Z,42.60
2018-03-11T04:38:58.541Z,43.77
2018-03-11T04:41:26.163Z,43.57
2018-03-11T04:43:53.905Z,47.43
2018-03-11T04:46:21.565Z,40.60
2018-03-11T04:48:49.199Z,50.17
2018-03-11T04:51:16.808Z,44.93
2018-03-11T04:53:44.553Z,48.53
2018-03-11T04:56:12.160Z,39.40
2018-03-11T04:58:39.794Z,38.07
2018-03-11T05:01:07.407Z,42.47
2018-03-11T05:03:35.045Z,41.60
2018-03-11T05:06:02.648Z,37.07
2018-03-11T05:08:30.529Z,40.30
2018-03-11T05:10:58.144Z,41.90
2018-03-11T05:13:25.744Z,32.57
2018-03-11T05:15:53.411Z,39.30
2018-03-11T05:18:21.028Z,47.23
2018-03-11T05:20:48.673Z,44.53
2018-03-11T05:23:16.280Z,50.27
2018-03-11T05:25:43.964Z,50.27
2018-03-11T05:28:11.580Z,64.60
2018-03-11T05:30:39.220Z,48.13
2018-03-11T05:33:06.839Z,56.67
2018-03-11T05:35:34.492Z,49.60
2018-03-11T05:38:02.118Z,43.83
2018-03-11T05:40:30.463Z,48.30
2018-03-11T05:42:58.109Z,47.10
2018-03-11T05:45:25.780Z,40.80
2018-03-11T05:47:53.449Z,49.93
2018-03-11T05:50:21.107Z,38.73
2018-03-11T05:52:48.740Z,43.37
2018-03-11T05:55:16.369Z,49.07
2018-03-11T05:57:44.012Z,44.63
2018-03-11T06:00:11.653Z,39.53
2018-03-11T06:02:39.422Z,47.13
2018-03-11T06:05:07.045Z,58.53
2018-03-11T06:07:34.653Z,37.90
2018-03-11T06:10:02.308Z,78.33
2018-03-11T06:12:29.964Z,44.30
2018-03-11T06:14:57.638Z,46.97
2018-03-11T06:17:25.293Z,41.00
2018-03-11T06:19:52.933Z,37.97
2018-03-11T06:22:20.554Z,40.03
2018-03-11T06:24:48.197Z,35.50
2018-03-11T06:27:15.804Z,38.20
2018-03-11T06:29:43.504Z,39.50
2018-03-11T06:32:11.115Z,38.10
2018-03-11T06:34:38.756Z,42.10
2018-03-11T06:37:06.369Z,43.07
2018-03-11T06:39:34.054Z,39.87
2018-03-11T06:42:01.692Z,40.77
2018-03-11T06:44:29.310Z,33.00
2018-03-11T06:46:57.043Z,34.07
2018-03-11T06:49:24.656Z,39.33
2018-03-11T06:51:52.360Z,37.30
2018-03-11T06:54:20.025Z,36.00
2018-03-11T06:56:47.657Z,36.00
2018-03-11T06:59:15.273Z,38.07
2018-03-11T07:01:43.017Z,39.57
2018-03-11T07:04:10.682Z,36.90
2018-03-11T07:06:38.328Z,33.97
2018-03-11T07:09:06.000Z,32.27
2018-03-11T07:11:33.662Z,33.77
2018-03-11T07:14:01.298Z,37.50
2018-03-11T07:16:28.920Z,40.43
2018-03-11T07:18:56.664Z,38.90
2018-03-11T07:21:24.318Z,37.63
2018-03-11T07:23:51.948Z,44.73
2018-03-11T07:26:19.565Z,39.67
2018-03-11T07:28:47.197Z,39.07
2018-03-11T07:31:14.869Z,34.40
2018-03-11T07:33:42.524Z,38.47
2018-03-11T07:36:10.129Z,41.90
2018-03-11T07:38:37.776Z,41.90
2018-03-11T07:41:05.380Z,40.93
2018-03-11T07:43:32.988Z,37.77
2018-03-11T07:46:00.636Z,38.50
2018-03-11T07:48:28.257Z,40.17
2018-03-11T07:50:55.888Z,38.80
2018-03-11T07:53:23.521Z,39.83
2018-03-11T07:55:51.157Z,45.80
2018-03-11T07:58:18.847Z,39.17
2018-03-11T08:00:46.480Z,36.27
2018-03-11T08:03:14.176Z,34.13
2018-03-11T08:05:41.829Z,32.17
2018-03-11T08:08:09.445Z,33.40
2018-03-11T08:10:37.165Z,34.90
2018-03-11T08:13:04.805Z,31.10
2018-03-11T08:15:32.488Z,30.90
2018-03-11T08:18:00.149Z,32.77
2018-03-11T08:20:27.817Z,32.13
2018-03-11T08:22:55.448Z,33.00
2018-03-11T08:25:23.056Z,30.97
2018-03-11T08:27:50.763Z,31.20
2018-03-11T08:30:18.372Z,30.67
2018-03-11T08:32:46.004Z,29.80
2018-03-11T08:35:13.617Z,30.60
2018-03-11T08:37:41.345Z,29.23
2018-03-11T08:40:08.960Z,31.27
2018-03-11T08:42:36.572Z,30.70
2018-03-11T08:45:04.209Z,30.30
2018-03-11T08:47:31.900Z,32.10
2018-03-11T08:49:59.658Z,30.27
2018-03-11T08:52:27.280Z,28.73
2018-03-11T08:54:54.920Z,28.80
2018-03-11T08:57:22.552Z,30.70
2018-03-11T08:59:50.217Z,30.53
2018-03-11T09:02:17.876Z,26.83
2018-03-11T09:04:45.521Z,27.77
2018-03-11T09:07:13.196Z,29.53
2018-03-11T09:09:40.868Z,27.90
2018-03-11T09:12:08.505Z,27.57
2018-03-11T09:14:36.187Z,29.97
2018-03-11T09:17:03.835Z,26.77
2018-03-11T09:19:31.460Z,28.70
2018-03-11T09:21:59.101Z,28.93
2018-03-11T09:24:26.741Z,30.10
2018-03-11T09:26:54.375Z,28.73
2018-03-11T09:29:21.992Z,28.00
2018-03-11T09:31:49.727Z,28.43
2018-03-11T09:34:17.401Z,27.80
2018-03-11T09:36:45.062Z,29.90
2018-03-11T09:39:12.812Z,25.93
2018-03-11T09:41:40.476Z,26.83
2018-03-11T09:44:08.144Z,28.60
2018-03-11T09:46:35.788Z,29.10
2018-03-11T09:49:03.465Z,28.40
2018-03-11T09:51:31.133Z,30.43
2018-03-11T09:53:58.763Z,26.97
2018-03-11T09:56:26.456Z,27.67
2018-03-11T09:58:54.093Z,26.70
2018-03-11T10:01:21.777Z,27.93
2018-03-11T10:03:49.418Z,29.83
2018-03-11T10:06:17.108Z,26.57
2018-03-11T10:08:44.751Z,24.63
2018-03-11T10:11:12.530Z,24.47
2018-03-11T10:13:40.173Z,24.23
2018-03-11T10:16:07.788Z,27.23
2018-03-11T10:18:35.425Z,27.67
2018-03-11T10:21:03.088Z,29.10
2018-03-11T10:23:30.805Z,26.00
2018-03-11T10:25:58.416Z,26.40
2018-03-11T10:28:26.081Z,27.37
2018-03-11T10:30:53.718Z,23.73
2018-03-11T10:33:21.335Z,23.60
2018-03-11T10:35:48.968Z,23.80
2018-03-11T10:38:16.628Z,21.33
2018-03-11T10:40:44.288Z,24.20
2018-03-11T10:43:11.952Z,24.40
2018-03-11T10:45:39.584Z,24.63
2018-03-11T10:48:07.200Z,23.13
2018-03-11T10:50:34.937Z,26.57
2018-03-11T10:53:02.596Z,25.10
2018-03-11T10:55:30.243Z,25.60
2018-03-11T10:57:57.856Z,24.30
2018-03-11T11:00:27.328Z,24.80
2018-03-11T11:03:00.476Z,26.00
2018-03-11T11:05:28.184Z,24.53
2018-03-11T11:07:55.805Z,24.40
2018-03-11T11:10:23.440Z,23.30
2018-03-11T11:12:51.048Z,22.97
2018-03-11T11:15:18.698Z,23.00
2018-03-11T11:17:46.397Z,24.07
2018-03-11T11:20:14.056Z,23.90
2018-03-11T11:22:41.668Z,22.20
2018-03-11T11:25:09.328Z,19.80
2018-03-11T11:27:37.040Z,19.10
2018-03-11T11:30:04.655Z,19.93
2018-03-11T11:32:32.375Z,17.70
2018-03-11T11:35:00.192Z,17.80
2018-03-11T11:37:27.863Z,18.30
2018-03-11T11:39:55.468Z,15.43
2018-03-11T11:42:23.123Z,17.40
2018-03-11T11:44:50.788Z,16.90
2018-03-11T11:47:18.452Z,15.77
2018-03-11T11:49:46.058Z,15.43
2018-03-11T11:52:14.268Z,16.47
2018-03-11T11:54:41.880Z,15.90
2018-03-11T11:57:10.253Z,15.27
2018-03-11T11:59:37.864Z,17.40
2018-03-11T12:02:05.657Z,15.90
2018-03-11T12:04:33.264Z,14.97
2018-03-11T12:07:00.935Z,13.63
2018-03-11T12:09:28.540Z,13.50
2018-03-11T12:11:56.147Z,15.17
2018-03-11T12:14:23.780Z,16.83
2018-03-11T12:16:51.420Z,16.10
2018-03-11T12:19:19.061Z,17.40
2018-03-11T12:21:46.750Z,17.50
2018-03-11T12:24:14.511Z,17.17
2018-03-11T12:26:42.185Z,16.00
2018-03-11T12:29:09.825Z,16.90
2018-03-11T12:31:37.445Z,14.43
2018-03-11T12:34:05.173Z,13.53
2018-03-11T12:36:32.826Z,13.20
2018-03-11T12:39:00.480Z,12.17
2018-03-11T12:41:28.094Z,12.53
2018-03-11T12:43:55.712Z,11.90
2018-03-11T12:46:23.379Z,12.47
2018-03-11T12:48:50.988Z,12.40
2018-03-11T12:51:18.624Z,14.60
2018-03-11T12:53:46.236Z,15.00
2018-03-11T12:56:13.876Z,13.40
2018-03-11T12:58:41.616Z,14.30
2018-03-11T13:01:09.249Z,14.30
2018-03-11T13:03:37.068Z,14.47
2018-03-11T13:06:04.784Z,14.60
2018-03-11T13:08:32.419Z,14.43
2018-03-11T13:11:00.122Z,14.73
2018-03-11T13:13:27.740Z,14.87
2018-03-11T13:15:55.437Z,15.60
2018-03-11T13:18:24.740Z,14.37
2018-03-11T13:21:04.285Z,14.87
2018-03-11T13:23:31.938Z,14.90
2018-03-11T13:25:59.548Z,14.63
2018-03-11T13:28:39.057Z,15.30
2018-03-11T13:31:06.708Z,14.50
2018-03-11T13:33:46.140Z,14.00
2018-03-11T13:36:13.808Z,15.33
2018-03-11T13:38:53.387Z,15.60
2018-03-11T13:41:21.006Z,16.80
2018-03-11T13:43:48.640Z,17.00
2018-03-11T13:46:28.112Z,17.40
2018-03-11T13:48:55.757Z,15.63
2018-03-11T13:51:35.209Z,17.27
2018-03-11T13:54:02.844Z,17.33
2018-03-11T13:56:30.448Z,15.97
2018-03-11T13:58:58.081Z,18.00
2018-03-11T14:01:25.693Z,17.03
2018-03-11T14:03:53.332Z,14.70
2018-03-11T14:06:20.988Z,15.17
2018-03-11T14:08:48.633Z,15.30
2018-03-11T14:11:16.260Z,14.93
2018-03-11T14:13:43.891Z,14.63
2018-03-11T14:16:11.503Z,13.63
2018-03-11T14:18:39.117Z,13.70
2018-03-11T14:21:06.860Z,12.27
2018-03-11T14:23:34.469Z,9.83
2018-03-11T14:26:02.104Z,9.93
2018-03-11T14:28:29.712Z,9.57
2018-03-11T14:30:57.350Z,10.97
2018-03-11T14:33:24.963Z,10.33
2018-03-11T14:35:52.603Z,12.33
2018-03-11T14:38:20.212Z,9.87
2018-03-11T14:40:47.842Z,11.50
2018-03-11T14:43:15.472Z,8.90
2018-03-11T14:45:43.185Z,9.70
2018-03-11T14:48:10.845Z,10.80
2018-03-11T14:50:38.497Z,10.80
2018-03-11T14:53:06.119Z,11.03
2018-03-11T14:55:33.728Z,12.00
2018-03-11T14:58:01.361Z,10.73
2018-03-11T15:00:29.052Z,12.70
2018-03-11T15:02:56.686Z,11.80
2018-03-11T15:05:24.301Z,10.83
2018-03-11T15:07:51.959Z,12.00
2018-03-11T15:10:19.572Z,10.83
2018-03-11T15:12:47.196Z,10.70
2018-03-11T15:15:14.936Z,15.67
2018-03-11T15:17:42.553Z,13.60
2018-03-11T15:20:10.185Z,20.10
2018-03-11T15:22:37.832Z,30.03
2018-03-11T15:25:05.457Z,56.67
2018-03-11T15:27:33.144Z,14.37
2018-03-11T15:30:00.812Z,16.43
2018-03-11T15:32:28.423Z,77.87
2018-03-11T15:34:56.129Z,40.47
2018-03-11T15:37:23.790Z,53.83
2018-03-11T15:39:51.425Z,38.73
2018-03-11T15:42:19.040Z,18.80
2018-03-11T15:44:46.672Z,19.67
2018-03-11T15:47:14.285Z,15.60
2018-03-11T15:49:41.895Z,13.17
2018-03-11T15:52:09.533Z,13.03
2018-03-11T15:54:37.225Z,11.70
2018-03-11T15:57:04.884Z,9.30
2018-03-11T15:59:32.498Z,14.40
2018-03-11T16:02:00.208Z,11.77
2018-03-11T16:04:27.876Z,11.27
2018-03-11T16:06:55.521Z,13.07
2018-03-11T16:09:23.204Z,22.80
2018-03-11T16:11:50.845Z,24.00
2018-03-11T16:14:18.529Z,26.33
2018-03-11T16:16:46.164Z,28.20
2018-03-11T16:19:13.848Z,28.67
2018-03-11T16:21:41.461Z,28.93
2018-03-11T16:24:09.092Z,30.40
2018-03-11T16:26:36.709Z,30.83
2018-03-11T16:29:04.401Z,31.47
2018-03-11T16:31:32.063Z,31.73
2018-03-11T16:33:59.697Z,31.27
2018-03-11T16:36:27.400Z,30.40
2018-03-11T16:38:55.033Z,27.40
2018-03-11T16:41:22.716Z,29.73
2018-03-11T16:43:50.383Z,31.30
2018-03-11T16:46:17.997Z,29.77
2018-03-11T16:48:45.604Z,35.13
2018-03-11T16:51:13.244Z,33.83
2018-03-11T16:53:40.876Z,35.80
2018-03-11T16:56:08.515Z,33.00
2018-03-11T16:58:36.154Z,31.43
2018-03-11T17:01:03.813Z,29.63
2018-03-11T17:03:31.434Z,29.33
2018-03-11T17:05:59.142Z,30.70
2018-03-11T17:08:26.753Z,30.97
2018-03-11T17:10:54.384Z,27.93
2018-03-11T17:13:22.027Z,28.43
2018-03-11T17:15:49.660Z,29.97
2018-03-11T17:18:17.352Z,28.63
2018-03-11T17:20:44.984Z,28.43
2018-03-11T17:23:12.596Z,27.90
2018-03-11T17:25:40.266Z,28.73
2018-03-11T17:28:07.892Z,29.40
2018-03-11T17:30:35.547Z,27.07
2018-03-11T17:33:03.214Z,27.60
2018-03-11T17:35:30.889Z,27.77
2018-03-11T17:37:58.641Z,30.10
2018-03-11T17:40:26.253Z,29.10
2018-03-11T17:42:53.901Z,31.50
2018-03-11T17:45:21.536Z,32.47
2018-03-11T17:47:49.164Z,30.47
2018-03-11T17:50:16.780Z,30.87
2018-03-11T17:52:44.529Z,36.63
2018-03-11T17:55:12.141Z,32.70
2018-03-11T17:57:39.845Z,33.87
2018-03-11T18:00:07.456Z,33.33
2018-03-11T18:02:35.177Z,32.80
2018-03-11T18:05:02.841Z,31.10
2018-03-11T18:07:30.500Z,31.20
2018-03-11T18:09:58.118Z,28.83
2018-03-11T18:12:25.824Z,31.30
2018-03-11T18:14:53.436Z,33.00
2018-03-11T18:17:21.153Z,30.77
2018-03-11T18:19:48.911Z,31.73
2018-03-11T18:22:16.574Z,35.57
2018-03-11T18:24:44.196Z,35.70
2018-03-11T18:27:11.869Z,37.60
2018-03-11T18:29:39.569Z,36.60
2018-03-11T18:32:07.266Z,37.87
2018-03-11T18:34:34.895Z,40.97
2018-03-11T18:37:02.552Z,41.00
2018-03-11T18:39:30.188Z,42.30
2018-03-11T18:41:57.796Z,41.83
2018-03-11T18:44:25.429Z,36.43
2018-03-11T18:46:53.104Z,37.97
2018-03-11T18:49:20.769Z,34.90
2018-03-11T18:51:48.432Z,34.50
2018-03-11T18:54:16.073Z,36.27
2018-03-11T18:56:43.687Z,35.33
2018-03-11T18:59:11.897Z,35.73
2018-03-11T19:01:39.521Z,34.70
2018-03-11T19:04:07.257Z,37.07
2018-03-11T19:06:34.872Z,34.90
2018-03-11T19:09:02.507Z,35.27
2018-03-11T19:11:30.151Z,33.87
2018-03-11T19:13:57.804Z,32.10
2018-03-11T19:16:25.464Z,35.47
2018-03-11T19:18:53.125Z,33.27
2018-03-11T19:21:20.796Z,34.17
2018-03-11T19:23:48.453Z,35.20
2018-03-11T19:26:16.081Z,33.70
2018-03-11T19:28:43.776Z,36.63
2018-03-11T19:31:11.412Z,36.10
2018-03-11T19:33:39.105Z,35.20
2018-03-11T19:36:06.768Z,36.13
2018-03-11T19:38:34.434Z,35.30
2018-03-11T19:41:02.084Z,34.30
2018-03-11T19:43:29.756Z,34.47
2018-03-11T19:45:57.412Z,36.63
2018-03-11T19:48:25.045Z,34.10
2018-03-11T19:50:52.745Z,34.13
2018-03-11T19:53:20.502Z,32.40
2018-03-11T19:55:48.168Z,36.70
2018-03-11T19:58:15.837Z,36.10
2018-03-11T20:00:43.477Z,36.70
2018-03-11T20:03:11.109Z,36.07
2018-03-11T20:05:38.722Z,37.40
2018-03-11T20:08:06.384Z,36.27
2018-03-11T20:10:33.988Z,35.73
2018-03-11T20:13:01.625Z,33.73
2018-03-11T20:15:29.257Z,33.90
2018-03-11T20:17:56.924Z,32.83
2018-03-11T20:20:24.592Z,33.57
2018-03-11T20:22:52.205Z,33.07
2018-03-11T20:25:19.829Z,34.30
2018-03-11T20:27:47.432Z,34.73
2018-03-11T20:30:15.065Z,31.40
2018-03-11T20:32:42.674Z,30.10
2018-03-11T20:35:10.303Z,32.00
2018-03-11T20:37:38.023Z,32.30
2018-03-11T20:40:05.673Z,34.30
2018-03-11T20:42:33.282Z,30.87
2018-03-11T20:45:01.009Z,33.97
2018-03-11T20:47:28.642Z,31.70
2018-03-11T20:49:56.346Z,32.47
2018-03-11T20:52:23.974Z,30.63
2018-03-11T20:54:51.645Z,32.37
2018-03-11T20:57:19.249Z,33.40
2018-03-11T20:59:46.892Z,32.27
2018-03-11T21:02:14.560Z,32.17
2018-03-11T21:04:42.215Z,31.50
2018-03-11T21:07:09.919Z,30.50
2018-03-11T21:09:37.509Z,31.27
2018-03-11T21:12:05.141Z,29.10
2018-03-11T21:14:32.864Z,32.80
2018-03-11T21:17:00.512Z,30.50
2018-03-11T21:19:28.193Z,40.40
2018-03-11T21:21:55.809Z,38.70
2018-03-11T21:24:23.448Z,38.73
2018-03-11T21:26:51.077Z,36.23
2018-03-11T21:29:18.704Z,34.77
2018-03-11T21:31:46.318Z,33.93
2018-03-11T21:34:14.589Z,30.10
2018-03-11T21:36:42.201Z,29.27
2018-03-11T21:39:09.833Z,27.30
2018-03-11T21:41:37.464Z,26.63
2018-03-11T21:44:05.121Z,26.30
2018-03-11T21:46:32.785Z,21.53
2018-03-11T21:49:00.452Z,25.57
2018-03-11T21:51:28.065Z,25.93
2018-03-11T21:53:55.771Z,24.97
2018-03-11T21:56:23.396Z,24.63
2018-03-11T21:58:51.100Z,25.70
2018-03-11T22:01:18.757Z,24.87
2018-03-11T22:03:46.424Z,22.27
2018-03-11T22:06:14.052Z,23.97
2018-03-11T22:08:41.748Z,24.70
2018-03-11T22:11:09.380Z,22.17
2018-03-11T22:13:36.989Z,24.53
2018-03-11T22:16:04.625Z,26.77
2018-03-11T22:18:32.238Z,23.30
2018-03-11T22:20:59.964Z,24.50
2018-03-11T22:23:27.633Z,26.00
2018-03-11T22:25:55.285Z,25.97
2018-03-11T22:28:22.891Z,24.17
2018-03-11T22:30:50.617Z,25.30
2018-03-11T22:33:18.248Z,25.33
2018-03-11T22:35:45.938Z,22.60
2018-03-11T22:38:13.600Z,21.87
2018-03-11T22:40:41.273Z,25.17
2018-03-11T22:43:08.900Z,23.93
2018-03-11T22:45:36.511Z,22.23
2018-03-11T22:48:04.145Z,23.57
2018-03-11T22:50:31.752Z,23.20
2018-03-11T22:52:59.472Z,23.60
2018-03-11T22:55:27.145Z,24.83
2018-03-11T22:57:54.800Z,23.17
2018-03-11T23:00:22.416Z,24.30
2018-03-11T23:02:50.044Z,24.03
2018-03-11T23:05:17.693Z,24.50
2018-03-11T23:07:45.456Z,23.93
2018-03-11T23:10:13.073Z,23.13
2018-03-11T23:12:40.776Z,23.40
2018-03-11T23:15:08.405Z,23.87
2018-03-11T23:17:36.017Z,25.23
2018-03-11T23:20:03.660Z,22.60
2018-03-11T23:22:31.274Z,23.30
2018-03-11T23:24:58.914Z,24.17
2018-03-11T23:27:26.520Z,23.60
2018-03-11T23:29:54.152Z,24.37
2018-03-11T23:32:21.765Z,25.10
2018-03-11T23:34:49.397Z,23.93
2018-03-11T23:37:17.010Z,24.57
2018-03-11T23:39:44.656Z,23.20
2018-03-11T23:42:12.330Z,23.77
2018-03-11T23:44:39.945Z,24.80
2018-03-11T23:47:07.580Z,25.43
2018-03-11T23:49:35.189Z,24.50
2018-03-11T23:52:02.826Z,24.43
2018-03-11T23:54:30.432Z,24.40
2018-03-11T23:56:58.065Z,23.87
2018-03-11T23:59:25.676Z,24.37
